Time;durP1;ratioP1;P1;durP2;ratioP2;P2;SDS_P1;SDS_P2;PMS_P1;PMS_P2;Temp;Humidity;BMP_temperature;BMP_pressure;BME280_temperature;BME280_humidity;BME280_pressure;Samples;Min_cycle;Max_cycle;Signal;HPM_P1;HPM_P2
2022/09/15 00:01:02;;;;;;;6.87;4.07;;;;;;;17.79;100.00;95602.78;5076060;28;20279;-75
2022/09/15 00:03:30;;;;;;;5.87;4.70;;;;;;;17.85;100.00;95614.47;5069878;28;20279;-75
2022/09/15 00:05:57;;;;;;;6.43;4.70;;;;;;;17.86;100.00;95606.00;5080548;28;20208;-75
2022/09/15 00:08:25;;;;;;;6.70;4.50;;;;;;;17.88;100.00;95597.47;5076910;28;20197;-75
2022/09/15 00:10:54;;;;;;;9.90;5.07;;;;;;;17.86;100.00;95597.81;5073019;28;20220;-75
2022/09/15 00:13:23;;;;;;;7.70;4.70;;;;;;;17.87;100.00;95598.59;5074515;28;20232;-75
2022/09/15 00:15:50;;;;;;;7.20;4.67;;;;;;;17.85;100.00;95604.38;5070051;28;20233;-75
2022/09/15 00:18:18;;;;;;;7.73;4.53;;;;;;;17.77;100.00;95602.28;5069804;28;20346;-75
2022/09/15 00:20:47;;;;;;;6.43;4.50;;;;;;;17.72;100.00;95594.97;5076780;28;20235;-75
2022/09/15 00:23:16;;;;;;;9.67;5.03;;;;;;;17.77;100.00;95580.44;5104975;28;20220;-75
2022/09/15 00:25:44;;;;;;;8.47;4.90;;;;;;;17.71;100.00;95576.13;5081621;28;20203;-75
2022/09/15 00:28:12;;;;;;;7.57;4.40;;;;;;;17.65;100.00;95577.31;5077675;28;20212;-75
2022/09/15 00:30:43;;;;;;;6.03;3.80;;;;;;;17.59;100.00;95573.81;5076462;28;20214;-75
2022/09/15 00:33:10;;;;;;;6.83;3.90;;;;;;;17.61;100.00;95570.78;5077815;28;20223;-75
2022/09/15 00:35:39;;;;;;;7.40;3.60;;;;;;;17.59;100.00;95578.47;5071309;28;20205;-75
2022/09/15 00:38:10;;;;;;;5.10;3.80;;;;;;;17.54;100.00;95590.25;5089003;28;20238;-75
2022/09/15 00:40:44;;;;;;;7.23;4.17;;;;;;;17.57;100.00;95591.59;5076440;28;20285;-75
2022/09/15 00:43:12;;;;;;;7.00;3.80;;;;;;;17.60;100.00;95591.84;5079706;28;20241;-75
2022/09/15 00:45:40;;;;;;;6.93;3.70;;;;;;;17.58;100.00;95593.22;5069405;28;20224;-75
2022/09/15 00:48:11;;;;;;;5.97;3.37;;;;;;;17.57;100.00;95588.88;5090487;28;20197;-75
2022/09/15 00:50:41;;;;;;;5.47;3.60;;;;;;;17.60;100.00;95601.94;5077380;28;20208;-75
2022/09/15 00:53:11;;;;;;;4.23;3.07;;;;;;;17.62;100.00;95599.75;5083701;28;20223;-75
2022/09/15 00:55:42;;;;;;;5.93;3.70;;;;;;;17.64;100.00;95598.34;5074940;28;20205;-75
2022/09/15 00:58:13;;;;;;;5.90;3.17;;;;;;;17.56;100.00;95590.78;5077444;28;20209;-75
2022/09/15 01:00:48;;;;;;;6.53;3.03;;;;;;;17.50;100.00;95596.59;5084164;28;20213;-75
2022/09/15 01:03:16;;;;;;;4.47;2.53;;;;;;;17.49;100.00;95590.31;5075117;28;20223;-75
2022/09/15 01:05:50;;;;;;;4.13;2.47;;;;;;;17.42;100.00;95583.59;5073454;28;20205;-75
2022/09/15 01:08:24;;;;;;;2.87;2.07;;;;;;;17.43;100.00;95594.22;5084509;28;20219;-75
2022/09/15 01:10:51;;;;;;;4.67;2.70;;;;;;;17.43;100.00;95596.16;5082324;28;20256;-75
2022/09/15 01:13:18;;;;;;;8.87;3.80;;;;;;;17.31;100.00;95594.63;5092270;28;20201;-75
2022/09/15 01:15:56;;;;;;;6.10;3.00;;;;;;;17.35;100.00;95601.13;5093322;28;20550;-75
2022/09/15 01:18:30;;;;;;;4.23;2.63;;;;;;;17.40;100.00;95603.81;5081828;28;20200;-75
2022/09/15 01:21:28;;;;;;;3.40;2.50;;;;;;;17.40;100.00;95608.44;5079970;28;20286;-75
2022/09/15 01:24:36;;;;;;;3.17;2.83;;;;;;;17.39;100.00;95609.56;5078065;28;20271;-75
2022/09/15 01:27:17;;;;;;;5.63;2.87;;;;;;;17.38;100.00;95580.63;5063198;28;20205;-75
2022/09/15 01:29:59;;;;;;;4.77;2.93;;;;;;;17.28;100.00;95573.38;5084669;28;20220;-75
2022/09/15 01:35:26;;;;;;;3.87;2.50;;;;;;;17.27;100.00;95579.13;5078375;28;20193;-75
2022/09/15 01:37:58;;;;;;;3.10;2.57;;;;;;;17.28;100.00;95573.38;5073369;28;20216;-75
2022/09/15 01:40:32;;;;;;;3.90;2.80;;;;;;;17.24;100.00;95566.91;5083812;28;20238;-75
2022/09/15 01:43:01;;;;;;;4.13;2.80;;;;;;;17.21;100.00;95572.09;5084623;28;20217;-74
2022/09/15 01:45:33;;;;;;;4.63;3.10;;;;;;;17.16;100.00;95580.38;5081037;28;20205;-75
2022/09/15 01:48:05;;;;;;;5.13;3.27;;;;;;;17.17;100.00;95574.63;5083745;28;20213;-75
2022/09/15 01:50:36;;;;;;;5.47;3.10;;;;;;;17.21;100.00;95567.47;5070299;28;20216;-75
2022/09/15 01:53:11;;;;;;;4.23;3.33;;;;;;;17.16;100.00;95553.09;5081300;28;20311;-75
2022/09/15 01:55:43;;;;;;;5.27;3.13;;;;;;;17.15;100.00;95555.00;5080577;28;20240;-75
2022/09/15 01:58:11;;;;;;;5.17;3.43;;;;;;;17.15;100.00;95541.38;5075823;28;20259;-75
2022/09/15 02:00:47;;;;;;;4.80;3.03;;;;;;;17.20;100.00;95537.75;5074196;28;20213;-75
2022/09/15 02:03:20;;;;;;;3.80;3.17;;;;;;;17.12;100.00;95532.94;5075227;28;20263;-74
2022/09/15 02:05:53;;;;;;;3.27;2.73;;;;;;;17.15;100.00;95540.53;5084126;28;20216;-74
2022/09/15 02:08:26;;;;;;;4.30;2.90;;;;;;;17.19;100.00;95542.38;5070897;28;20202;-75
2022/09/15 02:11:03;;;;;;;4.57;2.97;;;;;;;17.13;100.00;95529.94;5075475;28;20206;-74
2022/09/15 02:13:39;;;;;;;4.80;3.00;;;;;;;17.11;100.00;95523.94;5073303;28;20204;-75
2022/09/15 02:16:18;;;;;;;5.57;2.90;;;;;;;17.12;100.00;95524.75;5074280;28;20308;-74
2022/09/15 02:18:55;;;;;;;5.47;3.33;;;;;;;17.10;100.00;95511.41;5083464;28;20304;-74
2022/09/15 02:21:28;;;;;;;3.50;3.17;;;;;;;17.11;100.00;95523.94;5085888;28;20236;-75
2022/09/15 02:24:02;;;;;;;5.07;2.93;;;;;;;17.10;100.00;95521.53;5077170;28;20228;-75
2022/09/15 02:26:32;;;;;;;4.17;2.80;;;;;;;17.09;100.00;95526.16;5074745;28;20201;-74
2022/09/15 02:29:05;;;;;;;4.53;3.13;;;;;;;17.02;100.00;95515.59;5074340;28;20202;-74
2022/09/15 02:31:36;;;;;;;5.40;2.90;;;;;;;17.01;100.00;95521.34;5079812;28;20208;-74
2022/09/15 02:34:08;;;;;;;3.70;2.73;;;;;;;17.06;100.00;95520.47;5082821;28;20201;-74
2022/09/15 02:36:36;;;;;;;5.60;2.57;;;;;;;17.08;100.00;95524.53;5071534;28;20201;-74
2022/09/15 02:39:08;;;;;;;5.23;2.57;;;;;;;17.01;100.00;95524.09;5079317;28;20208;-74
2022/09/15 02:41:36;;;;;;;3.07;2.03;;;;;;;17.03;100.00;95513.66;5074413;28;20297;-74
2022/09/15 02:44:03;;;;;;;4.07;2.03;;;;;;;16.99;100.00;95507.19;5073470;28;20225;-75
2022/09/15 02:46:30;;;;;;;2.70;2.10;;;;;;;17.05;100.00;95508.75;5072376;28;20209;-74
2022/09/15 02:48:59;;;;;;;3.87;2.13;;;;;;;17.10;100.00;95488.78;5080836;28;20288;-75
2022/09/15 02:51:26;;;;;;;3.60;2.13;;;;;;;17.05;100.00;95478.75;5071400;28;20197;-75
2022/09/15 02:53:54;;;;;;;4.07;3.13;;;;;;;17.06;100.00;95485.81;5069522;28;20247;-75
2022/09/15 02:56:21;;;;;;;2.90;2.17;;;;;;;17.02;100.00;95487.50;5083309;28;20209;-75
2022/09/15 02:58:48;;;;;;;3.67;2.00;;;;;;;17.06;100.00;95483.09;5076402;28;20217;-74
2022/09/15 03:01:15;;;;;;;2.43;2.00;;;;;;;17.06;100.00;95474.09;5075487;28;20236;-75
2022/09/15 03:03:44;;;;;;;3.57;1.90;;;;;;;17.02;100.00;95471.13;5071886;28;20256;-74
2022/09/15 03:06:20;;;;;;;3.13;2.17;;;;;;;16.99;100.00;95486.19;5085716;28;20238;-75
2022/09/15 03:08:52;;;;;;;6.03;1.93;;;;;;;16.95;100.00;95487.88;5070985;28;20255;-74
2022/09/15 03:11:21;;;;;;;4.27;1.97;;;;;;;16.91;100.00;95480.56;5074136;28;20216;-74
2022/09/15 03:13:52;;;;;;;2.83;1.80;;;;;;;16.87;100.00;95469.41;5072952;28;20211;-75
2022/09/15 03:16:19;;;;;;;3.47;1.70;;;;;;;16.85;100.00;95476.25;5080213;28;20225;-74
2022/09/15 03:18:47;;;;;;;3.37;1.70;;;;;;;16.85;100.00;95476.25;5080819;28;20225;-75
2022/09/15 03:21:17;;;;;;;2.13;1.83;;;;;;;16.91;100.00;95492.28;5070764;28;20264;-75
2022/09/15 03:23:45;;;;;;;2.57;1.80;;;;;;;16.84;100.00;95491.03;5068126;28;20278;-74
2022/09/15 03:26:12;;;;;;;3.73;1.60;;;;;;;16.76;100.00;95483.47;5083417;28;20960;-75
2022/09/15 03:28:39;;;;;;;2.77;1.57;;;;;;;16.73;100.00;95484.88;5076884;28;20272;-75
2022/09/15 03:31:07;;;;;;;4.53;2.20;;;;;;;16.70;100.00;95474.53;5073959;28;20286;-75
2022/09/15 03:33:34;;;;;;;4.90;2.00;;;;;;;16.73;100.00;95467.69;5082416;28;20193;-75
2022/09/15 03:36:02;;;;;;;2.03;1.47;;;;;;;16.83;100.00;95478.47;5074351;28;20205;-75
2022/09/15 03:38:31;;;;;;;2.63;1.80;;;;;;;16.72;100.00;95476.97;5081082;28;20215;-74
2022/09/15 03:41:00;;;;;;;2.10;1.43;;;;;;;16.66;100.00;95478.13;5075063;28;20201;-75
2022/09/15 03:43:27;;;;;;;2.50;1.87;;;;;;;16.67;100.00;95474.31;5082075;28;20229;-75
2022/09/15 03:45:55;;;;;;;2.27;1.67;;;;;;;16.67;100.00;95468.84;5084767;28;20228;-74
2022/09/15 03:48:23;;;;;;;3.33;1.47;;;;;;;16.75;100.00;95471.75;5070615;28;20195;-75
2022/09/15 03:50:50;;;;;;;2.67;1.60;;;;;;;16.70;100.00;95476.44;5076379;28;20214;-75
2022/09/15 03:53:18;;;;;;;2.47;1.60;;;;;;;16.69;100.00;95483.00;5078489;28;20219;-75
2022/09/15 03:55:47;;;;;;;3.47;1.87;;;;;;;16.67;100.00;95474.31;5071064;28;20359;-75
2022/09/15 03:58:15;;;;;;;2.67;1.77;;;;;;;16.70;100.00;95490.06;5077153;28;20197;-75
2022/09/15 04:00:44;;;;;;;2.43;2.00;;;;;;;16.63;100.00;95496.69;5069821;28;20308;-74
2022/09/15 04:03:11;;;;;;;4.47;2.30;;;;;;;16.63;100.00;95493.16;5069718;28;20217;-75
2022/09/15 04:05:39;;;;;;;2.70;2.20;;;;;;;16.66;100.00;95497.22;5078113;28;20201;-75
2022/09/15 04:08:06;;;;;;;4.93;2.40;;;;;;;16.67;100.00;95496.94;5075926;28;20197;-74
2022/09/15 04:10:33;;;;;;;2.83;2.30;;;;;;;16.67;100.00;95502.38;5075970;28;20202;-74
2022/09/15 04:13:02;;;;;;;4.30;2.30;;;;;;;16.61;100.00;95509.78;5074204;28;20201;-74
2022/09/15 04:15:29;;;;;;;3.30;2.43;;;;;;;16.67;100.00;95517.91;5071111;28;20308;-74
2022/09/15 04:17:56;;;;;;;2.30;2.00;;;;;;;16.61;100.00;95520.69;5069246;28;20221;-74
2022/09/15 04:20:23;;;;;;;4.73;2.50;;;;;;;16.57;100.00;95510.63;5088761;28;20221;-74
2022/09/15 04:22:50;;;;;;;3.77;2.67;;;;;;;16.56;100.00;95520.72;5071963;28;20208;-74
2022/09/15 04:25:17;;;;;;;3.53;2.50;;;;;;;16.58;100.00;95513.06;5074210;28;20208;-74
2022/09/15 04:27:44;;;;;;;2.67;2.17;;;;;;;16.58;100.00;95507.63;5077685;28;20201;-74
2022/09/15 04:30:13;;;;;;;3.63;2.30;;;;;;;16.57;100.00;95518.81;5082312;28;20281;-75
2022/09/15 04:32:40;;;;;;;5.77;4.87;;;;;;;16.48;100.00;95518.63;5083980;28;20227;-75
2022/09/15 04:35:08;;;;;;;5.87;2.33;;;;;;;16.45;100.00;95512.91;5071898;28;20204;-75
2022/09/15 04:37:35;;;;;;;4.43;2.20;;;;;;;16.40;100.00;95510.25;5076003;28;20201;-75
2022/09/15 04:40:02;;;;;;;3.97;1.97;;;;;;;16.43;100.00;95520.56;5072367;28;20219;-75
2022/09/15 04:42:30;;;;;;;3.43;2.33;;;;;;;16.47;100.00;95514.25;5075750;28;20212;-75
2022/09/15 04:44:57;;;;;;;2.90;2.60;;;;;;;16.42;100.00;95511.56;5068241;28;20279;-75
2022/09/15 04:47:26;;;;;;;3.53;2.30;;;;;;;16.43;100.00;95521.38;5079609;28;20208;-75
2022/09/15 04:49:53;;;;;;;3.83;2.60;;;;;;;16.47;100.00;95527.06;5072348;28;20227;-74
2022/09/15 04:52:20;;;;;;;3.30;2.43;;;;;;;16.47;100.00;95536.06;5071877;28;20202;-74
2022/09/15 04:54:47;;;;;;;3.50;3.10;;;;;;;16.49;100.00;95533.88;5072161;28;20296;-75
2022/09/15 04:57:14;;;;;;;4.03;2.23;;;;;;;16.50;100.00;95524.56;5070228;28;20213;-75
2022/09/15 04:59:41;;;;;;;4.93;2.40;;;;;;;16.45;100.00;95538.25;5081885;28;20209;-75
2022/09/15 05:02:08;;;;;;;3.33;2.40;;;;;;;16.47;100.00;95532.53;5069511;28;20229;-75
2022/09/15 05:04:36;;;;;;;3.10;2.80;;;;;;;16.45;100.00;95535.53;5078309;28;20312;-75
2022/09/15 05:07:04;;;;;;;6.17;3.57;;;;;;;16.39;100.00;95531.22;5076955;28;20217;-75
2022/09/15 05:09:31;;;;;;;2.77;2.57;;;;;;;16.38;100.00;95535.06;5072182;28;20208;-75
2022/09/15 05:11:58;;;;;;;4.73;3.00;;;;;;;16.38;100.00;95537.78;5084955;28;20201;-74
2022/09/15 05:14:25;;;;;;;5.60;3.17;;;;;;;16.39;100.00;95538.59;5072164;28;20209;-75
2022/09/15 05:16:52;;;;;;;4.17;3.00;;;;;;;16.45;100.00;95535.53;5071824;28;20288;-75
2022/09/15 05:19:19;;;;;;;4.53;2.80;;;;;;;16.45;100.00;95537.44;5074104;28;20484;-75
2022/09/15 05:21:47;;;;;;;4.00;2.97;;;;;;;16.40;100.00;95532.88;5102087;28;20224;-75
2022/09/15 05:24:15;;;;;;;4.37;2.90;;;;;;;16.39;100.00;95535.88;5081682;28;20220;-75
2022/09/15 05:26:42;;;;;;;4.90;3.10;;;;;;;16.36;100.00;95531.78;5094037;28;20192;-74
2022/09/15 05:29:09;;;;;;;5.60;3.30;;;;;;;16.40;100.00;95538.31;5088614;28;20209;-74
2022/09/15 05:31:36;;;;;;;4.97;3.10;;;;;;;16.45;100.00;95548.34;5089948;28;20206;-75
2022/09/15 05:34:05;;;;;;;4.90;3.10;;;;;;;16.48;100.00;95548.59;5082240;28;20211;-75
2022/09/15 05:36:33;;;;;;;4.17;2.80;;;;;;;16.53;100.00;95536.81;5081873;28;20200;-75
2022/09/15 05:39:01;;;;;;;5.80;3.27;;;;;;;16.48;100.00;95532.25;5082868;28;20257;-75
2022/09/15 05:41:29;;;;;;;7.07;2.73;;;;;;;16.53;100.00;95540.34;5091349;28;20214;-74
2022/09/15 05:43:58;;;;;;;4.90;3.17;;;;;;;16.53;100.00;95534.09;5079555;28;20315;-75
2022/09/15 05:46:25;;;;;;;4.00;3.17;;;;;;;16.55;100.00;95548.25;5074956;28;20204;-75
2022/09/15 05:48:54;;;;;;;4.70;3.20;;;;;;;16.50;100.00;95551.81;5076280;28;20261;-75
2022/09/15 05:51:21;;;;;;;4.10;3.00;;;;;;;16.52;100.00;95549.63;5105405;28;20213;-74
2022/09/15 05:53:50;;;;;;;3.87;3.10;;;;;;;16.59;100.00;95543.84;5092173;28;20201;-74
2022/09/15 05:56:19;;;;;;;6.90;3.30;;;;;;;16.60;100.00;95550.91;5083721;28;20261;-74
2022/09/15 05:58:48;;;;;;;6.40;2.97;;;;;;;16.58;100.00;95547.69;5088019;28;20197;-74
2022/09/15 06:01:17;;;;;;;6.40;3.17;;;;;;;16.58;100.00;95551.22;5075899;28;20203;-74
2022/09/15 06:03:45;;;;;;;5.53;3.10;;;;;;;16.60;100.00;95554.44;5073868;28;20378;-74
2022/09/15 06:06:12;;;;;;;6.80;3.10;;;;;;;16.76;100.00;95548.91;5076363;28;20208;-74
2022/09/15 06:08:43;;;;;;;4.53;2.90;;;;;;;16.72;100.00;95551.38;5074607;28;20208;-75
2022/09/15 06:11:12;;;;;;;4.23;3.00;;;;;;;16.71;100.00;95551.66;5079219;28;20209;-74
2022/09/15 06:13:40;;;;;;;4.03;2.70;;;;;;;16.70;100.00;95553.56;5090522;28;20220;-75
2022/09/15 06:16:09;;;;;;;3.33;3.03;;;;;;;16.68;100.00;95557.69;5091259;28;20230;-74
2022/09/15 06:18:38;;;;;;;4.90;3.17;;;;;;;16.73;100.00;95560.38;5074541;28;20219;-75
2022/09/15 06:21:08;;;;;;;4.70;2.77;;;;;;;16.75;100.00;95548.09;5092212;28;20305;-75
2022/09/15 06:23:36;;;;;;;4.13;2.50;;;;;;;16.73;100.00;95544.03;5089720;28;20277;-75
2022/09/15 06:26:08;;;;;;;2.87;2.60;;;;;;;16.79;100.00;95551.03;5076943;28;20203;-74
2022/09/15 06:28:35;;;;;;;4.93;3.07;;;;;;;16.80;100.00;95549.94;5090966;28;20204;-75
2022/09/15 06:31:05;;;;;;;3.60;2.50;;;;;;;16.84;100.00;95561.91;5084161;28;20240;-74
2022/09/15 06:33:32;;;;;;;5.63;2.70;;;;;;;16.90;100.00;95555.28;5074725;28;20217;-74
2022/09/15 06:36:02;;;;;;;4.93;2.23;;;;;;;16.92;100.00;95564.81;5077192;28;20197;-74
2022/09/15 06:38:30;;;;;;;4.30;2.60;;;;;;;16.91;100.00;95562.38;5088534;28;20200;-74
2022/09/15 06:40:58;;;;;;;3.20;2.90;;;;;;;16.83;100.00;95563.81;5101489;28;20196;-75
2022/09/15 06:43:26;;;;;;;4.70;2.87;;;;;;;16.81;100.00;95557.84;5104682;28;20282;-74
2022/09/15 06:45:53;;;;;;;2.67;2.47;;;;;;;16.76;100.00;95554.34;5099383;28;20220;-74
2022/09/15 06:48:21;;;;;;;6.20;2.73;;;;;;;16.77;100.00;95561.41;5090386;28;20208;-75
2022/09/15 06:50:54;;;;;;;4.07;2.43;;;;;;;16.83;100.00;95576.63;5076070;28;20208;-74
2022/09/15 06:53:22;;;;;;;3.20;2.60;;;;;;;16.91;100.00;95570.56;5101841;28;20199;-74
2022/09/15 06:55:49;;;;;;;3.23;2.40;;;;;;;16.88;100.00;95563.75;5085132;28;20215;-75
2022/09/15 06:58:16;;;;;;;2.53;2.23;;;;;;;16.90;100.00;95558.00;5086373;28;20211;-75
2022/09/15 07:00:43;;;;;;;4.20;3.17;;;;;;;16.96;100.00;95565.03;5086734;28;20201;-75
2022/09/15 07:03:10;;;;;;;2.53;2.20;;;;;;;17.00;100.00;95569.63;5099635;28;20196;-75
2022/09/15 07:05:39;;;;;;;4.63;2.13;;;;;;;17.03;100.00;95570.94;5074919;28;20225;-75
2022/09/15 07:08:06;;;;;;;4.50;2.33;;;;;;;17.07;100.00;95576.66;5098023;28;20200;-75
2022/09/15 07:10:33;;;;;;;5.10;2.43;;;;;;;17.07;100.00;95569.28;5078683;28;20209;-75
2022/09/15 07:13:02;;;;;;;4.70;2.43;;;;;;;17.07;100.00;95560.28;5076128;28;20208;-75
2022/09/15 07:15:30;;;;;;;3.00;2.50;;;;;;;17.13;100.00;95570.03;5075351;28;20231;-75
2022/09/15 07:17:58;;;;;;;3.13;2.27;;;;;;;17.16;100.00;95564.81;5087942;28;20204;-75
2022/09/15 07:20:27;;;;;;;5.20;1.93;;;;;;;17.18;100.00;95559.06;5079675;28;20237;-75
2022/09/15 07:22:56;;;;;;;3.60;2.60;;;;;;;17.24;100.00;95566.09;5081260;28;20212;-75
2022/09/15 07:25:23;;;;;;;3.10;2.27;;;;;;;17.28;100.00;95562.47;5096824;28;20226;-75
2022/09/15 07:27:50;;;;;;;3.07;2.13;;;;;;;17.27;100.00;95560.84;5088326;28;20207;-75
2022/09/15 07:30:17;;;;;;;4.90;2.03;;;;;;;17.36;100.00;95569.19;5093916;28;20200;-75
2022/09/15 07:32:44;;;;;;;2.30;2.00;;;;;;;17.40;100.00;95565.59;5091703;28;20204;-75
2022/09/15 07:35:12;;;;;;;2.77;1.87;;;;;;;17.30;100.00;95563.00;5078542;28;20200;-75
2022/09/15 07:37:39;;;;;;;2.10;1.90;;;;;;;17.25;100.00;95565.78;5095526;28;20246;-75
2022/09/15 07:40:09;;;;;;;3.03;2.00;;;;;;;17.32;100.00;95573.63;5076314;28;20257;-75
2022/09/15 07:42:37;;;;;;;6.23;2.10;;;;;;;17.32;100.00;95571.72;5086947;28;20265;-75
2022/09/15 07:45:04;;;;;;;6.27;1.90;;;;;;;17.34;100.00;95576.88;5076836;28;20231;-75
2022/09/15 07:47:31;;;;;;;5.03;1.90;;;;;;;17.41;100.00;95569.16;5092117;28;20197;-75
2022/09/15 07:49:58;;;;;;;4.00;2.20;;;;;;;17.53;100.00;95574.16;5078006;28;20205;-75
2022/09/15 07:52:25;;;;;;;7.40;2.30;;;;;;;17.61;100.00;95568.88;5078824;28;20204;-75
2022/09/15 07:54:52;;;;;;;3.90;2.10;;;;;;;17.72;100.00;95572.31;5073998;28;20224;-75
2022/09/15 07:57:21;;;;;;;6.23;2.30;;;;;;;17.88;100.00;95575.63;5086621;28;20291;-75
2022/09/15 07:59:48;;;;;;;4.20;2.40;;;;;;;17.96;100.00;95570.31;5086461;28;20201;-75
2022/09/15 08:02:17;;;;;;;5.70;2.70;;;;;;;18.04;100.00;95577.84;5099646;28;20291;-75
2022/09/15 08:04:44;;;;;;;5.07;2.60;;;;;;;18.14;100.00;95580.44;5073904;28;20227;-75
2022/09/15 08:07:11;;;;;;;4.10;2.20;;;;;;;18.42;100.00;95594.22;5087358;28;20204;-75
2022/09/15 08:09:39;;;;;;;6.45;2.45;;;;;;;18.65;100.00;95595.22;5082096;28;20220;-75
2022/09/15 08:12:07;;;;;;;5.67;2.37;;;;;;;18.80;100.00;95603.97;5082844;28;20211;-75
2022/09/15 08:14:36;;;;;;;4.03;2.20;;;;;;;18.80;100.00;95609.44;5076877;28;20197;-75
2022/09/15 08:17:04;;;;;;;5.00;2.40;;;;;;;18.88;100.00;95614.22;5080912;28;20204;-75
2022/09/15 08:19:33;;;;;;;3.53;2.33;;;;;;;18.93;100.00;95618.00;5081630;28;20212;-75
2022/09/15 08:22:01;;;;;;;4.83;2.50;;;;;;;19.03;100.00;95617.81;5088235;28;20244;-75
2022/09/15 08:24:29;;;;;;;4.00;2.30;;;;;;;19.12;100.00;95627.78;5071875;28;20221;-75
2022/09/15 08:26:57;;;;;;;5.27;2.00;;;;;;;19.06;100.00;95639.91;5084402;28;20193;-75
2022/09/15 08:29:24;;;;;;;3.63;2.00;;;;;;;19.04;100.00;95635.88;5093112;28;20201;-75
2022/09/15 08:31:53;;;;;;;5.33;2.00;;;;;;;18.90;100.00;95636.63;5076549;28;20266;-76
2022/09/15 08:34:20;;;;;;;2.67;1.83;;;;;;;18.92;100.00;95646.47;5083876;28;20323;-75
2022/09/15 08:36:47;;;;;;;4.05;1.88;;;;;;;19.00;100.00;95649.31;5074353;28;20307;-75
2022/09/15 08:39:14;;;;;;;3.53;2.00;;;;;;;18.98;100.00;95654.28;5076578;28;20199;-75
2022/09/15 08:41:44;;;;;;;3.17;1.90;;;;;;;18.85;100.00;95646.84;5077559;28;20211;-75
2022/09/15 08:44:32;;;;;;;2.92;2.28;;;;;;;18.82;100.00;95651.00;5080894;28;20208;-76
2022/09/15 08:47:08;;;;;;;2.60;2.10;;;;;;;18.81;100.00;95652.09;5085016;28;20215;-75
2022/09/15 08:49:44;;;;;;;4.30;2.20;;;;;;;18.77;100.00;95653.81;5083365;28;20204;-75
2022/09/15 08:52:18;;;;;;;6.50;2.33;;;;;;;18.83;100.00;95662.75;5097979;28;20211;-75
2022/09/15 08:54:45;;;;;;;6.40;2.60;;;;;;;18.76;100.00;95657.66;5075553;28;20283;-75
2022/09/15 08:57:19;;;;;;;17.13;11.70;;;;;;;18.75;100.00;95660.69;5090164;28;20222;-75
2022/09/15 08:59:47;;;;;;;2.83;2.20;;;;;;;18.77;100.00;95663.94;5081354;28;20249;-75
2022/09/15 09:02:35;;;;;;;5.27;2.00;;;;;;;18.75;100.00;95656.03;5098726;28;20205;-75
2022/09/15 09:05:13;;;;;;;3.30;1.67;;;;;;;18.77;100.00;95658.47;5102344;28;20220;-75
2022/09/15 09:08:01;;;;;;;4.97;2.57;;;;;;;18.88;100.00;95660.72;5095933;28;20204;-75
2022/09/15 09:10:37;;;;;;;2.53;1.70;;;;;;;18.95;100.00;95660.38;5085756;28;20200;-75
2022/09/15 09:13:20;;;;;;;3.20;1.85;;;;;;;19.00;100.00;95662.19;5092511;28;20208;-75
2022/09/15 09:16:02;;;;;;;4.13;2.00;;;;;;;19.18;100.00;95664.06;5100015;28;20322;-75
2022/09/15 09:18:51;;;;;;;2.60;1.80;;;;;;;19.56;100.00;95660.06;5080818;28;20209;-75
2022/09/15 09:21:25;;;;;;;3.13;1.83;;;;;;;19.72;100.00;95657.88;5091089;28;20323;-75
2022/09/15 09:24:02;;;;;;;2.35;2.15;;;;;;;19.86;100.00;95650.44;5076402;28;20232;-75
2022/09/15 09:26:32;;;;;;;3.53;2.22;;;;;;;19.96;100.00;95643.94;5077630;28;20228;-76
2022/09/15 09:29:01;;;;;;;3.63;1.98;;;;;;;19.91;100.00;95652.25;5077708;28;20300;-75
2022/09/15 09:31:29;;;;;;;3.90;1.80;;;;;;;19.91;100.00;95649.50;5077706;28;20201;-75
2022/09/15 09:34:05;;;;;;;2.60;1.67;;;;;;;19.80;100.00;95639.91;5074116;28;20359;-75
2022/09/15 09:36:34;;;;;;;3.67;2.28;;;;;;;19.85;100.00;95639.78;5079595;28;20204;-75
2022/09/15 09:39:03;;;;;;;3.67;1.95;;;;;;;19.88;100.00;95639.19;5091965;28;20204;-76
2022/09/15 09:41:35;;;;;;;1.70;1.48;;;;;;;19.95;100.00;95640.38;5077073;28;20307;-75
2022/09/15 09:44:04;;;;;;;3.10;1.92;;;;;;;19.99;100.00;95640.56;5078285;28;20308;-75
2022/09/15 09:46:31;;;;;;;3.60;2.22;;;;;;;20.01;100.00;95627.38;5081315;28;20239;-76
2022/09/15 09:49:04;;;;;;;2.15;1.95;;;;;;;19.98;100.00;95628.00;5084034;28;20204;-76
2022/09/15 09:51:35;;;;;;;5.43;2.30;;;;;;;20.01;100.00;95635.59;5086180;28;20204;-75
2022/09/15 09:54:14;;;;;;;2.83;1.90;;;;;;;20.02;100.00;95637.22;5083927;28;20244;-75
2022/09/15 09:56:41;;;;;;;2.95;2.13;;;;;;;20.10;100.00;95641.97;5079210;28;20276;-75
2022/09/15 09:59:38;;;;;;;3.05;2.05;;;;;;;20.04;100.00;95632.25;5087564;28;20201;-75
2022/09/15 10:02:15;;;;;;;5.07;2.08;;;;;;;20.00;100.00;95629.31;5087398;28;20208;-75
2022/09/15 10:04:45;;;;;;;3.17;1.98;;;;;;;20.00;100.00;95618.34;5080507;28;20212;-75
2022/09/15 10:07:14;;;;;;;7.35;2.08;;;;;;;20.03;100.00;95633.38;5083417;28;20258;-76
2022/09/15 10:09:49;;;;;;;3.85;1.85;;;;;;;20.02;100.00;95623.53;5080902;28;20201;-75
2022/09/15 10:12:22;;;;;;;5.70;2.20;;;;;;;20.02;100.00;95621.59;5076483;28;20207;-75
2022/09/15 10:14:53;;;;;;;4.70;2.40;;;;;;;19.98;100.00;95611.56;5090951;28;20244;-75
2022/09/15 10:17:22;;;;;;;3.83;2.97;;;;;;;20.03;100.00;95614.19;5080135;28;20255;-76
2022/09/15 10:19:53;;;;;;;2.92;2.15;;;;;;;20.06;100.00;95616.31;5078029;28;20275;-76
2022/09/15 10:22:28;;;;;;;4.03;2.08;;;;;;;20.08;100.00;95611.31;5092347;28;20233;-76
2022/09/15 10:24:56;;;;;;;2.45;2.10;;;;;;;20.10;100.00;95614.56;5074334;28;20241;-76
2022/09/15 10:27:30;;;;;;;3.72;2.05;;;;;;;20.13;100.00;95610.41;5089962;28;20196;-75
2022/09/15 10:30:12;;;;;;;3.75;2.33;;;;;;;20.15;100.00;95606.25;5085521;28;20208;-75
2022/09/15 10:32:39;;;;;;;2.42;1.88;;;;;;;20.16;100.00;95616.06;5083740;28;20227;-75
2022/09/15 10:35:11;;;;;;;4.93;2.80;;;;;;;20.15;100.00;95628.19;5079878;28;20208;-75
2022/09/15 10:37:57;;;;;;;3.78;1.85;;;;;;;20.18;100.00;95626.72;5084909;28;20265;-76
2022/09/15 10:40:33;;;;;;;2.65;1.85;;;;;;;20.16;100.00;95626.25;5096972;28;20260;-76
2022/09/15 10:43:21;;;;;;;4.10;1.85;;;;;;;20.18;100.00;95621.25;5101970;28;20207;-76
2022/09/15 10:45:49;;;;;;;3.20;2.88;;;;;;;20.07;100.00;95619.88;5073488;28;20236;-75
2022/09/15 10:48:32;;;;;;;5.13;2.22;;;;;;;20.08;100.00;95626.94;5093353;28;20209;-75
2022/09/15 10:51:10;;;;;;;3.63;2.08;;;;;;;20.11;100.00;95624.41;5099724;28;20208;-75
2022/09/15 10:53:52;;;;;;;3.75;2.20;;;;;;;20.10;100.00;95630.19;5084555;28;20256;-75
2022/09/15 10:56:27;;;;;;;3.53;2.50;;;;;;;20.10;100.00;95616.50;5092719;28;20213;-75
2022/09/15 10:59:03;;;;;;;3.17;2.35;;;;;;;20.08;100.00;95614.06;5096088;28;20295;-75
2022/09/15 11:01:57;;;;;;;4.18;2.53;;;;;;;20.01;100.00;95616.41;5081106;28;20207;-75
2022/09/15 11:04:44;;;;;;;4.55;2.10;;;;;;;19.94;100.00;95621.50;5082499;28;20282;-75
2022/09/15 11:07:24;;;;;;;5.40;2.30;;;;;;;19.92;100.00;95623.72;5082529;28;20247;-76
2022/09/15 11:09:57;;;;;;;4.50;2.50;;;;;;;19.96;100.00;95625.56;5093266;28;20201;-76
2022/09/15 11:12:37;;;;;;;3.40;1.90;;;;;;;19.98;100.00;95634.31;5080510;28;20193;-76
2022/09/15 11:15:18;;;;;;;2.65;2.20;;;;;;;19.95;100.00;95629.44;5083389;28;20223;-76
2022/09/15 11:17:59;;;;;;;4.32;2.42;;;;;;;19.93;100.00;95625.34;5088167;28;20283;-75
2022/09/15 11:20:43;;;;;;;4.35;2.25;;;;;;;19.90;100.00;95634.22;5095399;28;20319;-76
2022/09/15 11:23:18;;;;;;;2.60;2.22;;;;;;;19.82;100.00;95632.19;5095963;28;20204;-75
2022/09/15 11:25:49;;;;;;;4.10;2.10;;;;;;;19.72;100.00;95632.41;5083266;28;20230;-75
2022/09/15 11:28:21;;;;;;;2.75;2.42;;;;;;;19.68;100.00;95631.38;5075559;28;20200;-75
2022/09/15 11:30:56;;;;;;;2.60;2.10;;;;;;;19.60;100.00;95628.22;5070948;28;20205;-75
2022/09/15 11:33:31;;;;;;;4.15;2.30;;;;;;;19.88;100.00;95633.69;5082207;28;20199;-75
2022/09/15 11:36:06;;;;;;;4.55;2.20;;;;;;;20.16;100.00;95629.00;5072007;28;20299;-75
2022/09/15 11:38:46;;;;;;;2.25;1.80;;;;;;;20.48;100.00;95634.28;5082367;28;20291;-75
2022/09/15 11:41:19;;;;;;;4.95;2.47;;;;;;;20.55;100.00;95626.44;5099332;28;20200;-75
2022/09/15 11:43:55;;;;;;;3.13;2.40;;;;;;;20.48;100.00;95617.03;5083328;28;20212;-75